createdAt,value
2023-02-14T00:00:24.105Z,1.62
2023-02-14T00:01:24.100Z,1.62
2023-02-14T00:02:24.100Z,1.58
2023-02-14T00:03:24.097Z,1.58
2023-02-14T00:04:24.182Z,1.57
2023-02-14T00:05:24.059Z,1.55
2023-02-14T00:06:24.046Z,1.52
2023-02-14T00:07:24.057Z,1.50
2023-02-14T00:08:24.028Z,1.42
2023-02-14T00:09:24.032Z,1.46
2023-02-14T00:10:24.021Z,1.44
2023-02-14T00:11:24.011Z,1.50
2023-02-14T00:12:24.009Z,1.52
2023-02-14T00:13:23.981Z,1.50
2023-02-14T00:14:23.984Z,1.54
2023-02-14T00:15:23.968Z,1.58
2023-02-14T00:16:24.009Z,1.58
2023-02-14T00:17:23.984Z,1.55
2023-02-14T00:18:23.929Z,1.57
2023-02-14T00:19:23.921Z,1.58
2023-02-14T00:20:23.904Z,1.61
2023-02-14T00:21:23.906Z,1.57
2023-02-14T00:22:23.914Z,1.60
2023-02-14T00:23:23.880Z,1.61
2023-02-14T00:24:23.876Z,1.54
2023-02-14T00:25:23.860Z,1.47
2023-02-14T00:26:23.847Z,1.47
2023-02-14T00:27:23.857Z,1.44
2023-02-14T00:28:23.825Z,1.47
2023-02-14T00:29:23.834Z,1.47
2023-02-14T00:30:23.894Z,1.51
2023-02-14T00:31:23.915Z,1.47
2023-02-14T00:32:23.806Z,1.54
2023-02-14T00:33:23.787Z,1.50
2023-02-14T00:34:23.767Z,1.46
2023-02-14T00:35:23.759Z,1.47
2023-02-14T00:36:23.765Z,1.44
2023-02-14T00:37:23.751Z,1.42
2023-02-14T00:38:23.729Z,1.37
2023-02-14T00:39:23.712Z,1.33
2023-02-14T00:40:23.725Z,1.34
2023-02-14T00:41:23.690Z,1.39
2023-02-14T00:42:23.689Z,1.39
2023-02-14T00:43:23.676Z,1.28
2023-02-14T00:44:23.665Z,1.36
2023-02-14T00:45:23.765Z,1.33
2023-02-14T00:46:23.648Z,1.33
2023-02-14T00:47:23.641Z,1.28
2023-02-14T00:48:23.631Z,1.25
2023-02-14T00:49:23.611Z,1.22
2023-02-14T00:50:23.609Z,1.19
2023-02-14T00:51:23.587Z,1.25
2023-02-14T00:52:23.603Z,1.29
2023-02-14T00:53:23.566Z,1.29
2023-02-14T00:54:23.572Z,1.29
2023-02-14T00:55:23.574Z,1.29
2023-02-14T00:56:23.545Z,1.32
2023-02-14T00:57:23.533Z,1.33
2023-02-14T00:58:23.524Z,1.36
2023-02-14T00:59:23.509Z,1.36
2023-02-14T01:00:23.519Z,1.36
2023-02-14T01:01:23.520Z,1.36
2023-02-14T01:02:23.568Z,1.32
2023-02-14T01:03:23.468Z,1.22
2023-02-14T01:04:23.464Z,1.19
2023-02-14T01:05:23.460Z,1.14
2023-02-14T01:06:23.446Z,1.08
2023-02-14T01:07:23.481Z,1.04
2023-02-14T01:08:23.429Z,1.03
2023-02-14T01:09:23.407Z,1.12
2023-02-14T01:10:23.401Z,1.16
2023-02-14T01:11:23.401Z,1.14
2023-02-14T01:12:23.408Z,1.16
2023-02-14T01:13:23.380Z,1.24
2023-02-14T01:14:23.359Z,1.33
2023-02-14T01:15:23.343Z,1.34
2023-02-14T01:16:23.375Z,1.34
2023-02-14T01:17:23.379Z,1.34
2023-02-14T01:18:23.321Z,1.32
2023-02-14T01:19:23.310Z,1.29
2023-02-14T01:20:23.310Z,1.28
2023-02-14T01:21:23.295Z,1.29
2023-02-14T01:22:23.351Z,1.34
2023-02-14T01:23:23.267Z,1.36
2023-02-14T01:24:23.261Z,1.40
2023-02-14T01:25:23.245Z,1.42
2023-02-14T01:26:23.240Z,1.44
2023-02-14T01:27:23.227Z,1.47
2023-02-14T01:28:23.254Z,1.50
2023-02-14T01:29:23.204Z,1.54
2023-02-14T01:30:23.248Z,1.51
2023-02-14T01:31:23.379Z,1.54
2023-02-14T01:32:23.203Z,1.47
2023-02-14T01:33:23.188Z,1.47
2023-02-14T01:34:23.157Z,1.40
2023-02-14T01:35:23.147Z,1.29
2023-02-14T01:36:23.140Z,1.25
2023-02-14T01:37:23.127Z,1.25
2023-02-14T01:38:23.136Z,1.21
2023-02-14T01:39:23.104Z,1.18
2023-02-14T01:40:23.118Z,1.12
2023-02-14T01:41:23.095Z,1.08
2023-02-14T01:42:23.080Z,1.16
2023-02-14T01:43:23.068Z,1.28
2023-02-14T01:44:23.058Z,1.29
2023-02-14T01:45:23.064Z,1.28
2023-02-14T01:46:23.043Z,1.29
2023-02-14T01:47:23.024Z,1.28
2023-02-14T01:48:23.044Z,1.26
2023-02-14T01:49:23.008Z,1.25
2023-02-14T01:50:22.996Z,1.25
2023-02-14T01:51:22.988Z,1.24
2023-02-14T01:52:22.978Z,1.19
2023-02-14T01:53:22.985Z,1.16
2023-02-14T01:54:22.954Z,1.15
2023-02-14T01:55:22.941Z,1.14
2023-02-14T01:56:22.943Z,1.15
2023-02-14T01:57:22.927Z,1.12
2023-02-14T01:58:22.955Z,1.04
2023-02-14T01:59:22.904Z,0.98
2023-02-14T02:00:22.902Z,0.98
2023-02-14T02:01:22.977Z,1.00
2023-02-14T02:02:22.923Z,1.01
2023-02-14T02:03:22.898Z,1.01
2023-02-14T02:04:22.858Z,1.08
2023-02-14T02:05:22.850Z,1.10
2023-02-14T02:06:22.838Z,1.14
2023-02-14T02:07:22.823Z,1.12
2023-02-14T02:08:22.836Z,1.12
2023-02-14T02:09:22.801Z,1.07
2023-02-14T02:10:22.811Z,1.06
2023-02-14T02:11:22.783Z,1.08
2023-02-14T02:12:22.788Z,1.07
2023-02-14T02:13:22.792Z,1.08
2023-02-14T02:14:22.761Z,1.07
2023-02-14T02:15:22.747Z,1.10
2023-02-14T02:16:22.749Z,1.04
2023-02-14T02:17:22.718Z,0.96
2023-02-14T02:18:22.777Z,0.96
2023-02-14T02:19:22.702Z,0.97
2023-02-14T02:20:22.701Z,0.98
2023-02-14T02:21:22.683Z,1.00
2023-02-14T02:22:22.673Z,0.97
2023-02-14T02:23:22.675Z,0.92
2023-02-14T02:24:22.650Z,0.89
2023-02-14T02:25:22.639Z,0.94
2023-02-14T02:26:22.635Z,0.96
2023-02-14T02:27:22.624Z,0.94
2023-02-14T02:28:22.649Z,0.90
2023-02-14T02:29:22.601Z,0.98
2023-02-14T02:30:22.752Z,1.00
2023-02-14T02:31:22.747Z,0.94
2023-02-14T02:32:22.573Z,0.92
2023-02-14T02:33:22.580Z,0.83
2023-02-14T02:34:22.552Z,0.79
2023-02-14T02:35:22.540Z,0.80
2023-02-14T02:36:22.528Z,0.76
2023-02-14T02:37:22.518Z,0.76
2023-02-14T02:38:22.526Z,0.72
2023-02-14T02:39:22.497Z,0.71
2023-02-14T02:40:22.492Z,0.70
2023-02-14T02:41:22.478Z,0.65
2023-02-14T02:42:22.483Z,0.64
2023-02-14T02:43:22.547Z,0.62
2023-02-14T02:44:22.452Z,0.65
2023-02-14T02:45:22.436Z,0.72
2023-02-14T02:46:22.461Z,0.78
2023-02-14T02:47:22.417Z,0.78
2023-02-14T02:48:22.438Z,0.76
2023-02-14T02:49:22.395Z,0.76
2023-02-14T02:50:22.385Z,0.79
2023-02-14T02:51:22.374Z,0.78
2023-02-14T02:52:22.369Z,0.72
2023-02-14T02:53:22.365Z,0.70
2023-02-14T02:54:22.352Z,0.70
2023-02-14T02:55:22.343Z,0.70
2023-02-14T02:56:22.345Z,0.71
2023-02-14T02:57:22.310Z,0.76
2023-02-14T02:58:22.308Z,0.75
2023-02-14T02:59:22.305Z,0.71
2023-02-14T03:00:22.285Z,0.71
2023-02-14T03:01:22.358Z,0.68
2023-02-14T03:02:22.266Z,0.75
2023-02-14T03:03:22.260Z,0.71
2023-02-14T03:04:22.249Z,0.70
2023-02-14T03:05:22.231Z,0.64
2023-02-14T03:06:22.251Z,0.57
2023-02-14T03:07:22.210Z,0.52
2023-02-14T03:08:22.213Z,0.48
2023-02-14T03:09:22.196Z,0.46
2023-02-14T03:10:22.193Z,0.51
2023-02-14T03:11:22.187Z,0.51
2023-02-14T03:12:22.165Z,0.53
2023-02-14T03:13:22.160Z,0.53
2023-02-14T03:14:22.157Z,0.53
2023-02-14T03:15:22.129Z,0.64
2023-02-14T03:16:22.138Z,0.64
2023-02-14T03:17:22.112Z,0.58
2023-02-14T03:18:22.155Z,0.60
2023-02-14T03:19:22.097Z,0.60
2023-02-14T03:20:22.087Z,0.65
2023-02-14T03:21:22.070Z,0.60
2023-02-14T03:22:22.066Z,0.51
2023-02-14T03:23:22.065Z,0.53
2023-02-14T03:24:22.044Z,0.51
2023-02-14T03:25:22.033Z,0.48
2023-02-14T03:26:22.061Z,0.45
2023-02-14T03:27:22.030Z,0.45
2023-02-14T03:28:22.005Z,0.48
2023-02-14T03:29:21.988Z,0.52
2023-02-14T03:30:22.011Z,0.57
2023-02-14T03:31:22.100Z,0.57
2023-02-14T03:32:22.116Z,0.49
2023-02-14T03:33:21.959Z,0.48
2023-02-14T03:34:21.945Z,0.38
2023-02-14T03:35:21.932Z,0.43
2023-02-14T03:36:21.942Z,0.43
2023-02-14T03:37:21.933Z,0.45
2023-02-14T03:38:21.917Z,0.43
2023-02-14T03:39:21.904Z,0.41
2023-02-14T03:40:21.893Z,0.36
2023-02-14T03:41:21.876Z,0.36
2023-02-14T03:42:21.865Z,0.38
2023-02-14T03:43:21.886Z,0.42
2023-02-14T03:44:21.847Z,0.36
2023-02-14T03:45:21.866Z,0.36
2023-02-14T03:46:21.873Z,0.41
2023-02-14T03:47:21.805Z,0.38
2023-02-14T03:48:21.812Z,0.36
2023-02-14T03:49:21.785Z,0.34
2023-02-14T03:50:21.784Z,0.31
2023-02-14T03:51:21.766Z,0.31
2023-02-14T03:52:21.761Z,0.36
2023-02-14T03:53:21.774Z,0.38
2023-02-14T03:54:21.737Z,0.34
2023-02-14T03:55:21.731Z,0.33
2023-02-14T03:56:21.723Z,0.31
2023-02-14T03:57:21.714Z,0.34
2023-02-14T03:58:21.722Z,0.28
2023-02-14T03:59:21.686Z,0.27
2023-02-14T04:00:21.680Z,0.30
2023-02-14T04:01:21.717Z,0.25
2023-02-14T04:02:21.658Z,0.27
2023-02-14T04:03:21.703Z,0.24
2023-02-14T04:04:21.637Z,0.21
2023-02-14T04:05:21.626Z,0.25
2023-02-14T04:06:21.621Z,0.30
2023-02-14T04:07:21.604Z,0.25
2023-02-14T04:08:21.600Z,0.31
2023-02-14T04:09:21.645Z,0.42
2023-02-14T04:10:21.581Z,0.43
2023-02-14T04:11:24.028Z,0.45
2023-02-14T04:12:32.357Z,0.43
2023-02-14T04:13:21.556Z,0.42
2023-02-14T04:14:21.569Z,0.39
2023-02-14T04:15:21.518Z,0.39
2023-02-14T04:16:21.559Z,0.33
2023-02-14T04:17:21.529Z,0.39
2023-02-14T04:18:21.499Z,0.36
2023-02-14T04:19:21.493Z,0.28
2023-02-14T04:20:21.488Z,0.28
2023-02-14T04:21:21.463Z,0.27
2023-02-14T04:22:21.458Z,0.38
2023-02-14T04:23:21.459Z,0.30
2023-02-14T04:24:21.448Z,0.28
2023-02-14T04:25:21.422Z,0.33
2023-02-14T04:26:21.413Z,0.34
2023-02-14T04:27:21.407Z,0.36
2023-02-14T04:28:21.395Z,0.36
2023-02-14T04:29:21.391Z,0.34
2023-02-14T04:30:21.405Z,0.30
2023-02-14T04:31:21.535Z,0.28
2023-02-14T04:32:21.385Z,0.28
2023-02-14T04:33:21.337Z,0.27
2023-02-14T04:34:21.348Z,0.30
2023-02-14T04:35:21.315Z,0.31
2023-02-14T04:36:21.321Z,0.38
2023-02-14T04:37:21.295Z,0.36
2023-02-14T04:38:21.283Z,0.31
2023-02-14T04:39:21.288Z,0.30
2023-02-14T04:40:21.270Z,0.30
2023-02-14T04:41:21.256Z,0.28
2023-02-14T04:42:21.248Z,0.28
2023-02-14T04:43:21.245Z,0.24
2023-02-14T04:44:21.253Z,0.24
2023-02-14T04:45:21.215Z,0.23
2023-02-14T04:46:21.221Z,0.15
2023-02-14T04:47:21.194Z,0.18
2023-02-14T04:48:21.189Z,0.15
2023-02-14T04:49:21.190Z,0.15
2023-02-14T04:50:21.164Z,0.15
2023-02-14T04:51:21.166Z,0.13
2023-02-14T04:52:21.154Z,0.13
2023-02-14T04:53:21.132Z,0.10
2023-02-14T04:54:21.140Z,0.10
2023-02-14T04:55:21.120Z,0.10
2023-02-14T04:56:21.107Z,0.09
2023-02-14T04:57:21.091Z,0.09
2023-02-14T04:58:21.080Z,0.07
2023-02-14T04:59:22.278Z,0.05
2023-02-14T05:00:21.055Z,0.07
2023-02-14T05:01:21.099Z,0.03
2023-02-14T05:02:21.071Z,0.03
2023-02-14T05:03:21.028Z,0.06
2023-02-14T05:04:21.028Z,0.12
2023-02-14T05:05:21.012Z,0.25
2023-02-14T05:06:21.002Z,0.33
2023-02-14T05:07:21.014Z,0.36
2023-02-14T05:08:21.014Z,0.39
2023-02-14T05:09:20.992Z,0.38
2023-02-14T05:10:20.962Z,0.39
2023-02-14T05:11:20.955Z,0.38
2023-02-14T05:12:20.940Z,0.36
2023-02-14T05:13:20.939Z,0.31
2023-02-14T05:14:20.930Z,0.33
2023-02-14T05:15:20.917Z,0.30
2023-02-14T05:16:20.903Z,0.24
2023-02-14T05:17:20.891Z,0.21
2023-02-14T05:18:20.876Z,0.27
2023-02-14T05:19:20.888Z,0.25
2023-02-14T05:20:20.860Z,0.20
2023-02-14T05:21:20.919Z,0.23
2023-02-14T05:22:20.840Z,0.27
2023-02-14T05:23:20.831Z,0.31
2023-02-14T05:24:20.856Z,0.36
2023-02-14T05:25:20.814Z,0.38
2023-02-14T05:26:20.790Z,0.42
2023-02-14T05:27:20.792Z,0.42
2023-02-14T05:28:20.791Z,0.34
2023-02-14T05:29:20.782Z,0.33
2023-02-14T05:30:21.018Z,0.31
2023-02-14T05:31:20.841Z,0.30
2023-02-14T05:32:20.733Z,0.30
2023-02-14T05:33:20.764Z,0.34
2023-02-14T05:34:21.810Z,0.39
2023-02-14T05:35:20.707Z,0.36
2023-02-14T05:36:20.697Z,0.31
2023-02-14T05:37:20.692Z,0.28
2023-02-14T05:38:20.691Z,0.27
2023-02-14T05:39:20.680Z,0.21
2023-02-14T05:40:20.678Z,0.33
2023-02-14T05:41:20.660Z,0.31
2023-02-14T05:42:20.632Z,0.25
2023-02-14T05:43:20.626Z,0.24
2023-02-14T05:44:20.894Z,0.28
2023-02-14T05:45:20.638Z,0.36
2023-02-14T05:46:20.605Z,0.36
2023-02-14T05:47:20.618Z,0.36
2023-02-14T05:48:20.583Z,0.38
2023-02-14T05:49:20.601Z,0.39
2023-02-14T05:50:20.565Z,0.36
2023-02-14T05:51:20.553Z,0.33
2023-02-14T05:52:20.537Z,0.34
2023-02-14T05:53:20.545Z,0.38
2023-02-14T05:54:20.540Z,0.42
2023-02-14T05:55:20.470Z,0.42
2023-02-14T05:56:20.521Z,0.41
2023-02-14T05:57:20.508Z,0.38
2023-02-14T05:58:20.479Z,0.34
2023-02-14T05:59:20.496Z,0.36
2023-02-14T06:00:20.412Z,0.30
2023-02-14T06:01:20.405Z,0.24
2023-02-14T06:02:20.498Z,0.16
2023-02-14T06:03:20.405Z,0.16
2023-02-14T06:04:20.464Z,0.12
2023-02-14T06:05:20.421Z,0.13
2023-02-14T06:06:20.355Z,0.10
2023-02-14T06:07:20.341Z,0.09
2023-02-14T06:08:20.323Z,0.09
2023-02-14T06:09:20.339Z,0.10
2023-02-14T06:10:20.314Z,0.05
2023-02-14T06:11:20.299Z,0.07
2023-02-14T06:12:20.286Z,0.07
2023-02-14T06:13:20.281Z,0.07
2023-02-14T06:14:20.282Z,0.13
2023-02-14T06:15:20.268Z,0.18
2023-02-14T06:16:20.294Z,0.21
2023-02-14T06:17:20.242Z,0.24
2023-02-14T06:18:20.225Z,0.25
2023-02-14T06:19:20.248Z,0.28
2023-02-14T06:20:20.211Z,0.25
2023-02-14T06:21:20.200Z,0.25
2023-02-14T06:22:20.185Z,0.25
2023-02-14T06:23:20.182Z,0.23
2023-02-14T06:24:20.195Z,0.24
2023-02-14T06:25:20.170Z,0.25
2023-02-14T06:26:20.148Z,0.27
2023-02-14T06:27:20.143Z,0.28
2023-02-14T06:28:20.138Z,0.31
2023-02-14T06:29:20.143Z,0.31
2023-02-14T06:30:20.187Z,0.31
2023-02-14T06:31:20.297Z,0.34
2023-02-14T06:32:20.120Z,0.34
2023-02-14T06:33:20.088Z,0.34
2023-02-14T06:34:20.079Z,0.33
2023-02-14T06:35:20.059Z,0.34
2023-02-14T06:36:20.047Z,0.31
2023-02-14T06:37:20.062Z,0.33
2023-02-14T06:38:20.036Z,0.43
2023-02-14T06:39:20.043Z,0.49
2023-02-14T06:40:20.022Z,0.60
2023-02-14T06:41:20.019Z,0.57
2023-02-14T06:42:19.985Z,0.52
2023-02-14T06:43:19.988Z,0.48
2023-02-14T06:44:19.985Z,0.48
2023-02-14T06:45:19.976Z,0.49
2023-02-14T06:46:20.042Z,0.51
2023-02-14T06:47:19.962Z,0.58
2023-02-14T06:48:19.929Z,0.58
2023-02-14T06:49:19.947Z,0.52
2023-02-14T06:50:19.908Z,0.48
2023-02-14T06:51:19.904Z,0.43
2023-02-14T06:52:19.891Z,0.36
2023-02-14T06:53:19.881Z,0.31
2023-02-14T06:54:19.876Z,0.31
2023-02-14T06:55:19.883Z,0.39
2023-02-14T06:56:19.849Z,0.39
2023-02-14T06:57:19.843Z,0.41
2023-02-14T06:58:19.834Z,0.43
2023-02-14T06:59:19.852Z,0.42
2023-02-14T07:00:19.813Z,0.41
2023-02-14T07:01:19.860Z,0.45
2023-02-14T07:02:19.825Z,0.48
2023-02-14T07:03:19.798Z,0.51
2023-02-14T07:04:19.782Z,0.58
2023-02-14T07:05:19.786Z,0.64
2023-02-14T07:06:19.748Z,0.70
2023-02-14T07:07:19.748Z,0.70
2023-02-14T07:08:19.729Z,0.75
2023-02-14T07:09:19.724Z,0.76
2023-02-14T07:10:19.725Z,0.79
2023-02-14T07:11:19.718Z,0.83
2023-02-14T07:12:19.688Z,0.89
2023-02-14T07:13:19.693Z,0.89
2023-02-14T07:14:19.671Z,0.90
2023-02-14T07:15:19.715Z,0.94
2023-02-14T07:16:19.646Z,0.97
2023-02-14T07:17:19.653Z,0.98
2023-02-14T07:18:19.624Z,1.03
2023-02-14T07:19:19.626Z,1.07
2023-02-14T07:20:19.625Z,1.07
2023-02-14T07:21:19.616Z,1.07
2023-02-14T07:22:19.624Z,1.06
2023-02-14T07:23:19.582Z,1.06
2023-02-14T07:24:19.570Z,1.06
2023-02-14T07:25:19.590Z,1.07
2023-02-14T07:26:19.557Z,1.08
2023-02-14T07:27:19.549Z,1.08
2023-02-14T07:28:19.531Z,1.03
2023-02-14T07:29:19.519Z,1.01
2023-02-14T07:30:19.635Z,0.98
2023-02-14T07:31:19.630Z,0.98
2023-02-14T07:32:19.638Z,0.98
2023-02-14T07:33:19.484Z,1.03
2023-02-14T07:34:19.472Z,1.08
2023-02-14T07:35:19.471Z,1.14
2023-02-14T07:36:19.447Z,1.18
2023-02-14T07:37:19.448Z,1.15
2023-02-14T07:38:19.434Z,1.19
2023-02-14T07:39:19.417Z,1.21
2023-02-14T07:40:19.416Z,1.24
2023-02-14T07:41:19.398Z,1.26
2023-02-14T07:42:19.386Z,1.26
2023-02-14T07:43:20.214Z,1.28
2023-02-14T07:44:19.370Z,1.25
2023-02-14T07:45:21.948Z,1.32
2023-02-14T07:46:19.374Z,1.33
2023-02-14T07:47:19.356Z,1.36
2023-02-14T07:48:19.320Z,1.42
2023-02-14T07:49:19.320Z,1.51
2023-02-14T07:50:19.359Z,1.54
2023-02-14T07:51:19.296Z,1.58
2023-02-14T07:52:19.283Z,1.64
2023-02-14T07:53:19.285Z,1.68
2023-02-14T07:54:20.358Z,1.69
2023-02-14T07:55:19.320Z,1.72
2023-02-14T07:56:19.250Z,1.73
2023-02-14T07:57:19.236Z,1.75
2023-02-14T07:58:19.225Z,1.76
2023-02-14T07:59:19.212Z,1.79
2023-02-14T08:00:19.216Z,1.87
2023-02-14T08:01:19.239Z,1.91
2023-02-14T08:02:19.191Z,1.97
2023-02-14T08:03:19.259Z,2.06
2023-02-14T08:04:19.165Z,2.10
2023-02-14T08:05:19.292Z,2.12
2023-02-14T08:06:19.142Z,2.16
2023-02-14T08:07:19.134Z,2.16
2023-02-14T08:08:19.123Z,2.22
2023-02-14T08:09:19.113Z,2.26
2023-02-14T08:10:19.110Z,2.26
2023-02-14T08:11:19.092Z,2.28
2023-02-14T08:12:19.089Z,2.30
2023-02-14T08:13:19.069Z,2.31
2023-02-14T08:14:19.061Z,2.37
2023-02-14T08:15:19.078Z,2.40
2023-02-14T08:16:19.095Z,2.45
2023-02-14T08:17:19.039Z,2.51
2023-02-14T08:18:19.047Z,2.56
2023-02-14T08:19:19.011Z,2.61
2023-02-14T08:20:19.064Z,2.69
2023-02-14T08:21:19.120Z,2.81
2023-02-14T08:22:18.975Z,2.91
2023-02-14T08:23:18.968Z,3.05
2023-02-14T08:24:18.952Z,3.16
2023-02-14T08:25:18.964Z,3.27
2023-02-14T08:26:18.945Z,3.53
2023-02-14T08:27:18.925Z,3.72
2023-02-14T08:28:18.929Z,4.07
2023-02-14T08:29:18.900Z,4.18
2023-02-14T08:30:19.025Z,4.16
2023-02-14T08:31:29.982Z,4.08
2023-02-14T08:32:18.913Z,4.07
2023-02-14T08:33:18.865Z,4.12
2023-02-14T08:34:18.849Z,4.14
2023-02-14T08:35:18.864Z,4.15
2023-02-14T08:36:18.825Z,4.22
2023-02-14T08:37:18.822Z,4.24
2023-02-14T08:38:18.809Z,4.15
2023-02-14T08:39:18.801Z,4.06
2023-02-14T08:40:18.885Z,4.15
2023-02-14T08:41:18.777Z,4.12
2023-02-14T08:42:18.774Z,4.16
2023-02-14T08:43:18.775Z,4.16
2023-02-14T08:44:18.753Z,4.22
2023-02-14T08:45:18.752Z,4.18
2023-02-14T08:46:18.800Z,4.06
2023-02-14T08:47:18.725Z,4.01
2023-02-14T08:48:18.710Z,4.33
2023-02-14T08:49:18.721Z,4.62
2023-02-14T08:50:18.702Z,4.72
2023-02-14T08:51:18.676Z,4.89
2023-02-14T08:52:18.670Z,5.10
2023-02-14T08:53:18.656Z,5.32
2023-02-14T08:54:18.660Z,5.48
2023-02-14T08:55:18.655Z,5.35
2023-02-14T08:56:18.641Z,5.07
2023-02-14T08:58:28.704Z,5.53
2023-02-14T08:59:29.649Z,5.60
2023-02-14T09:00:29.716Z,5.34
2023-02-14T09:01:29.737Z,4.99
2023-02-14T09:02:29.626Z,4.73
2023-02-14T09:03:29.636Z,4.54
2023-02-14T09:04:29.697Z,4.55
2023-02-14T09:05:29.620Z,4.80
2023-02-14T09:06:29.622Z,5.10
2023-02-14T09:07:29.581Z,5.23
2023-02-14T09:08:29.578Z,5.20
2023-02-14T09:09:29.573Z,5.12
2023-02-14T09:10:29.560Z,4.98
2023-02-14T09:11:29.539Z,4.86
2023-02-14T09:12:29.533Z,4.77
2023-02-14T09:13:29.504Z,4.79
2023-02-14T09:14:31.869Z,4.86
2023-02-14T09:15:29.513Z,4.86
2023-02-14T09:16:29.563Z,5.01
2023-02-14T09:17:29.515Z,5.05
2023-02-14T09:18:29.513Z,5.09
2023-02-14T09:19:29.453Z,5.10
2023-02-14T09:20:29.461Z,5.31
2023-02-14T09:21:30.190Z,5.41
2023-02-14T09:22:29.453Z,5.48
2023-02-14T09:23:29.403Z,5.32
2023-02-14T09:24:29.409Z,5.38
2023-02-14T09:25:29.446Z,5.53
2023-02-14T09:26:29.396Z,5.68
2023-02-14T09:27:29.365Z,5.70
2023-02-14T09:28:29.382Z,5.83
2023-02-14T09:29:29.341Z,5.91
2023-02-14T09:30:29.442Z,6.19
2023-02-14T09:31:29.432Z,6.56
2023-02-14T09:32:29.514Z,7.17
2023-02-14T09:33:29.300Z,7.89
2023-02-14T09:34:29.326Z,7.97
2023-02-14T09:35:29.316Z,8.18
2023-02-14T09:36:29.287Z,8.15
2023-02-14T09:37:29.264Z,8.44
2023-02-14T09:38:29.269Z,8.58
2023-02-14T09:39:29.240Z,9.21
2023-02-14T09:40:29.238Z,9.63
2023-02-14T09:41:29.248Z,9.78
2023-02-14T09:42:29.229Z,10.53
2023-02-14T09:43:29.235Z,10.83
2023-02-14T09:44:29.213Z,11.61
2023-02-14T09:45:29.240Z,11.78
2023-02-14T09:46:29.250Z,12.11
2023-02-14T09:47:29.177Z,12.66
2023-02-14T09:48:29.166Z,13.04
2023-02-14T09:49:29.208Z,12.69
2023-02-14T09:50:29.151Z,12.20
2023-02-14T09:51:29.119Z,11.78
2023-02-14T09:52:29.105Z,12.59
2023-02-14T09:53:29.093Z,13.11
2023-02-14T09:54:29.102Z,13.25
2023-02-14T09:55:29.099Z,13.20
2023-02-14T09:56:29.094Z,12.79
2023-02-14T09:57:29.082Z,12.51
2023-02-14T09:58:29.051Z,12.81
2023-02-14T09:59:29.032Z,13.14
2023-02-14T10:00:29.031Z,13.24
2023-02-14T10:01:29.069Z,13.27
2023-02-14T10:02:29.064Z,12.92
2023-02-14T10:03:29.012Z,13.25
2023-02-14T10:04:28.986Z,13.07
2023-02-14T10:05:28.973Z,12.92
2023-02-14T10:06:28.989Z,13.46
2023-02-14T10:07:28.953Z,13.02
2023-02-14T10:08:28.959Z,13.65
2023-02-14T10:09:28.930Z,14.06
2023-02-14T10:10:28.941Z,14.34
2023-02-14T10:11:28.974Z,14.68
2023-02-14T10:12:28.915Z,14.02
2023-02-14T10:13:28.927Z,14.19
2023-02-14T10:14:28.882Z,14.84
2023-02-14T10:15:28.883Z,14.95
2023-02-14T10:16:28.994Z,15.28
2023-02-14T10:17:28.910Z,15.68
2023-02-14T10:18:28.843Z,15.72
2023-02-14T10:19:28.880Z,15.66
2023-02-14T10:20:28.825Z,15.27
2023-02-14T10:21:28.833Z,15.43
2023-02-14T10:22:28.805Z,15.17
2023-02-14T10:23:28.828Z,15.31
2023-02-14T10:24:28.807Z,15.68
2023-02-14T10:25:28.758Z,15.67
2023-02-14T10:26:28.771Z,15.66
2023-02-14T10:27:28.751Z,15.39
2023-02-14T10:28:28.771Z,16.18
2023-02-14T10:29:28.731Z,16.81
2023-02-14T10:30:28.854Z,17.35
2023-02-14T10:31:28.864Z,16.98
2023-02-14T10:32:28.701Z,16.65
2023-02-14T10:33:28.675Z,16.93
2023-02-14T10:34:28.668Z,17.54
2023-02-14T10:35:28.673Z,17.63
2023-02-14T10:36:28.685Z,17.71
2023-02-14T10:37:28.636Z,17.84
2023-02-14T10:38:28.647Z,18.29
2023-02-14T10:39:28.619Z,18.72
2023-02-14T10:40:28.617Z,18.97
2023-02-14T10:41:28.619Z,19.20
2023-02-14T10:42:28.636Z,18.86
2023-02-14T10:43:28.620Z,18.31
2023-02-14T10:44:28.574Z,18.17
2023-02-14T10:45:28.573Z,17.84
2023-02-14T10:46:28.716Z,17.15
2023-02-14T10:47:28.536Z,17.76
2023-02-14T10:48:28.537Z,16.42
2023-02-14T10:49:28.514Z,17.18
2023-02-14T10:50:28.507Z,17.88
2023-02-14T10:51:28.527Z,17.81
2023-02-14T10:52:28.491Z,18.55
2023-02-14T10:53:28.540Z,18.98
2023-02-14T10:54:28.463Z,18.65
2023-02-14T10:55:32.855Z,19.24
2023-02-14T10:56:28.475Z,19.93
2023-02-14T10:57:28.430Z,19.83
2023-02-14T10:58:28.420Z,18.47
2023-02-14T10:59:28.445Z,18.04
2023-02-14T11:00:28.420Z,17.57
2023-02-14T11:01:28.458Z,17.99
2023-02-14T11:02:28.396Z,17.79
2023-02-14T11:03:28.425Z,18.09
2023-02-14T11:04:28.374Z,17.71
2023-02-14T11:05:28.351Z,16.27
2023-02-14T11:06:28.394Z,16.09
2023-02-14T11:07:28.362Z,16.45
2023-02-14T11:08:28.338Z,17.94
2023-02-14T11:09:28.385Z,18.00
2023-02-14T11:10:28.338Z,18.86
2023-02-14T11:11:28.336Z,18.47
2023-02-14T11:12:28.313Z,18.50
2023-02-14T11:13:28.271Z,18.90
2023-02-14T11:14:28.283Z,19.29
2023-02-14T11:15:28.265Z,18.92
2023-02-14T11:16:28.280Z,18.87
2023-02-14T11:17:28.237Z,18.52
2023-02-14T11:18:28.245Z,18.44
2023-02-14T11:19:28.210Z,18.91
2023-02-14T11:20:28.206Z,19.78
2023-02-14T11:21:28.198Z,20.50
2023-02-14T11:22:28.191Z,20.87
2023-02-14T11:23:28.174Z,20.21
2023-02-14T11:24:28.183Z,19.94
2023-02-14T11:25:28.156Z,20.10
2023-02-14T11:26:28.200Z,20.31
2023-02-14T11:27:28.148Z,21.23
2023-02-14T11:28:28.111Z,21.44
2023-02-14T11:29:28.109Z,20.42
2023-02-14T11:30:28.268Z,19.95
2023-02-14T11:31:28.208Z,20.54
2023-02-14T11:32:28.086Z,19.76
2023-02-14T11:33:28.093Z,19.93
2023-02-14T11:34:28.046Z,19.40
2023-02-14T11:35:28.042Z,19.28
2023-02-14T11:36:28.050Z,19.24
2023-02-14T11:37:28.030Z,19.31
2023-02-14T11:38:28.008Z,18.95
2023-02-14T11:39:28.005Z,19.61
2023-02-14T11:40:27.990Z,19.08
2023-02-14T11:41:27.991Z,19.24
2023-02-14T11:42:27.964Z,19.54
2023-02-14T11:43:27.963Z,20.03
2023-02-14T11:44:27.960Z,19.29
2023-02-14T11:45:27.993Z,18.31
2023-02-14T11:46:28.020Z,18.86
2023-02-14T11:47:27.940Z,18.86
2023-02-14T11:48:42.221Z,19.38
2023-02-14T11:49:27.908Z,18.86
2023-02-14T11:50:27.915Z,19.01
2023-02-14T11:51:27.904Z,18.99
2023-02-14T11:52:27.871Z,19.05
2023-02-14T11:53:27.864Z,19.32
2023-02-14T11:54:27.848Z,19.73
2023-02-14T11:55:27.847Z,19.48
2023-02-14T11:56:27.814Z,19.88
2023-02-14T11:57:27.822Z,20.27
2023-02-14T11:58:27.822Z,20.99
2023-02-14T11:59:27.800Z,21.20
2023-02-14T12:00:27.820Z,20.76
2023-02-14T12:01:27.790Z,19.75
2023-02-14T12:02:27.831Z,18.29
2023-02-14T12:03:27.827Z,18.91
2023-02-14T12:04:27.838Z,19.72
2023-02-14T12:05:27.754Z,19.46
2023-02-14T12:06:27.737Z,19.76
2023-02-14T12:07:27.707Z,20.59
2023-02-14T12:08:27.700Z,21.02
2023-02-14T12:09:27.713Z,20.51
2023-02-14T12:10:27.672Z,20.43
2023-02-14T12:11:27.675Z,20.10
2023-02-14T12:12:27.671Z,20.31
2023-02-14T12:13:27.688Z,20.66
2023-02-14T12:14:27.636Z,20.05
2023-02-14T12:15:27.683Z,19.32
2023-02-14T12:16:28.354Z,19.66
2023-02-14T12:17:27.606Z,19.88
2023-02-14T12:18:27.595Z,20.18
2023-02-14T12:19:27.578Z,21.11
2023-02-14T12:20:27.567Z,21.19
2023-02-14T12:21:27.579Z,20.89
2023-02-14T12:22:28.477Z,21.27
2023-02-14T12:23:27.549Z,21.09
2023-02-14T12:24:27.665Z,20.51
2023-02-14T12:25:27.516Z,20.23
2023-02-14T12:26:27.547Z,19.63
2023-02-14T12:27:27.501Z,19.91
2023-02-14T12:28:27.520Z,19.15
2023-02-14T12:29:27.498Z,19.75
2023-02-14T12:30:27.578Z,20.54
2023-02-14T12:31:27.608Z,20.83
2023-02-14T12:32:27.464Z,20.58
2023-02-14T12:33:27.443Z,19.78
2023-02-14T12:34:27.456Z,19.53
2023-02-14T12:35:27.428Z,19.43
2023-02-14T12:36:27.424Z,19.51
2023-02-14T12:37:27.394Z,19.75
2023-02-14T12:38:27.382Z,20.09
2023-02-14T12:39:27.375Z,19.29
2023-02-14T12:40:27.406Z,19.58
2023-02-14T12:41:27.373Z,19.93
2023-02-14T12:42:27.355Z,20.83
2023-02-14T12:43:27.332Z,20.87
2023-02-14T12:44:27.318Z,20.66
2023-02-14T12:45:27.312Z,20.96
2023-02-14T12:47:27.315Z,20.74
2023-02-14T12:48:27.280Z,20.89
2023-02-14T12:49:27.271Z,20.69
2023-02-14T12:50:27.258Z,20.38
2023-02-14T12:51:27.292Z,19.80
2023-02-14T12:52:27.274Z,18.68
2023-02-14T12:53:27.248Z,17.94
2023-02-14T12:54:27.216Z,18.42
2023-02-14T12:55:27.236Z,18.79
2023-02-14T12:56:27.191Z,19.11
2023-02-14T12:57:27.220Z,19.38
2023-02-14T12:58:27.210Z,20.16
2023-02-14T12:59:27.169Z,20.30
2023-02-14T13:00:27.157Z,19.57
2023-02-14T13:01:32.865Z,18.59
2023-02-14T13:02:27.313Z,18.27
2023-02-14T13:03:27.157Z,18.67
2023-02-14T13:04:27.123Z,18.39
2023-02-14T13:05:27.106Z,18.17
2023-02-14T13:06:27.098Z,18.22
2023-02-14T13:07:27.129Z,18.76
2023-02-14T13:08:27.105Z,19.32
2023-02-14T13:09:27.619Z,19.98
2023-02-14T13:10:27.583Z,19.58
2023-02-14T13:11:27.049Z,18.73
2023-02-14T13:12:27.637Z,19.01
2023-02-14T13:13:27.462Z,19.70